Terminal Aerodrome Forecast
Issued by NWS Blacksburg, VA

Current Version | Previous Version | Graphics & Text | Print | Product List | Glossary On
Versions: 1 2 3 4 5 6 7 8 9 10 11 12 13 14
000
FTUS41 KRNK 242320
TAFBLF
TAF
KBLF 242320Z 2500/2524 20005KT P6SM SCT130
     FM251100 VRB03KT P6SM BKN090
     FM252000 17007KT P6SM SCT040 BKN110=

USA.gov is the U.S. government's official web portal to all federal, state and local government web resources and services.